Main page
METAR-TAF:

METAR-TAF

Airports :

Hévíz, Hungary

Hévíz–Balaton Airport

latitude: 46-41-11N, longitude: 017-09-33E, elevation: 124 m

Current weather observation

The report was made 10 hours and 14 minutes ago, at 15:45 UTC
Wind 2 kt from the East/Northeast
Temperature 16°C
Humidity 72%
Pressure 1022 hPa
Visibility 10 km or more
Few clouds at a height of 4000 ft
Scattered clouds at a height of 6000 ft
Broken clouds at a height of 20000 ft

METAR: LHSM 251545Z 06002KT 9999 FEW040 SCT060 BKN200 16/11 Q1022 NOSIG

Time: 03:59 (01:59 UTC)

Forecast

The report was made 14 hours and 44 minutes ago, at 11:15 UTC
Forecast valid from 25 at 12 UTC to 25 at 21 UTC
Wind 5 kt from the East/Northeast
Visibility 10 km or more
Broken clouds at a height of 3000 ft

TAF: LHSM 251115Z 2512/2521 06005KT 9999 BKN030

Weather observations and forecasts of more than 4000 airports (METAR and TAF reports).

The available stations are represented by yellow and red dots on the map.

Hover mouse over dot to see the name of the station.

Then click to see weather observations and forecasts.

To change the map : click on the green buttons with a black cross to zoom in, on the green button with a dash to zoom out, or on the green arrows for adjacent maps.


METAR-TAF: